createdAt,value
2019-02-06T00:00:12.751Z,30.79
2019-02-06T00:01:12.738Z,30.10
2019-02-06T00:02:12.735Z,30.21
2019-02-06T00:03:12.735Z,30.01
2019-02-06T00:04:15.427Z,30.01
2019-02-06T00:05:14.269Z,31.31
2019-02-06T00:06:12.686Z,31.21
2019-02-06T00:07:12.684Z,31.41
2019-02-06T00:08:12.694Z,31.11
2019-02-06T00:09:12.659Z,31.01
2019-02-06T00:10:12.644Z,30.91
2019-02-06T00:11:12.641Z,31.41
2019-02-06T00:12:12.625Z,31.51
2019-02-06T00:13:12.625Z,31.11
2019-02-06T00:14:12.640Z,31.43
2019-02-06T00:15:12.591Z,30.62
2019-02-06T00:16:12.584Z,31.32
2019-02-06T00:17:12.578Z,31.93
2019-02-06T00:18:12.599Z,31.54
2019-02-06T00:19:12.553Z,31.64
2019-02-06T00:20:12.545Z,31.26
2019-02-06T00:21:12.534Z,31.56
2019-02-06T00:22:12.524Z,31.85
2019-02-06T00:23:12.537Z,31.76
2019-02-06T00:24:12.562Z,32.47
2019-02-06T00:25:12.542Z,32.57
2019-02-06T00:26:12.479Z,32.37
2019-02-06T00:27:12.471Z,32.67
2019-02-06T00:28:12.457Z,31.97
2019-02-06T00:29:12.464Z,32.17
2019-02-06T00:30:12.433Z,33.29
2019-02-06T00:31:12.439Z,33.09
2019-02-06T00:32:12.416Z,33.07
2019-02-06T00:33:12.410Z,33.07
2019-02-06T00:34:12.415Z,32.17
2019-02-06T00:35:12.385Z,32.15
2019-02-06T00:36:12.382Z,32.15
2019-02-06T00:37:12.360Z,32.26
2019-02-06T00:38:12.353Z,32.44
2019-02-06T00:39:12.353Z,32.14
2019-02-06T00:40:12.332Z,31.74
2019-02-06T00:41:12.319Z,31.62
2019-02-06T00:42:12.312Z,31.32
2019-02-06T00:43:12.353Z,30.73
2019-02-06T00:44:12.305Z,30.81
2019-02-06T00:45:12.285Z,31.41
2019-02-06T00:46:12.267Z,31.31
2019-02-06T00:47:12.265Z,30.31
2019-02-06T00:48:12.248Z,29.99
2019-02-06T00:49:12.250Z,29.80
2019-02-06T00:50:12.223Z,30.10
2019-02-06T00:51:12.219Z,30.19
2019-02-06T00:52:12.209Z,30.69
2019-02-06T00:53:12.194Z,30.38
2019-02-06T00:54:12.201Z,30.08
2019-02-06T00:55:12.170Z,29.98
2019-02-06T00:56:12.161Z,29.98
2019-02-06T00:57:12.149Z,29.98
2019-02-06T00:58:12.145Z,30.28
2019-02-06T00:59:12.145Z,30.18
2019-02-06T01:00:12.124Z,30.69
2019-02-06T01:01:12.111Z,30.60
2019-02-06T01:02:12.100Z,30.69
2019-02-06T01:03:12.094Z,30.29
2019-02-06T01:04:12.107Z,30.79
2019-02-06T01:05:12.065Z,30.49
2019-02-06T01:06:12.095Z,30.21
2019-02-06T01:07:12.143Z,31.21
2019-02-06T01:08:12.040Z,30.61
2019-02-06T01:09:12.045Z,31.21
2019-02-06T01:10:12.021Z,31.21
2019-02-06T01:11:12.021Z,31.82
2019-02-06T01:12:12.002Z,31.12
2019-02-06T01:13:11.993Z,30.93
2019-02-06T01:14:11.999Z,31.93
2019-02-06T01:15:11.970Z,31.62
2019-02-06T01:16:11.961Z,31.62
2019-02-06T01:17:11.951Z,31.62
2019-02-06T01:18:11.948Z,31.62
2019-02-06T01:19:11.941Z,31.62
2019-02-06T01:20:11.932Z,31.52
2019-02-06T01:21:11.909Z,31.62
2019-02-06T01:22:11.896Z,31.62
2019-02-06T01:23:11.899Z,31.74
2019-02-06T01:24:11.903Z,31.24
2019-02-06T01:25:11.871Z,31.34
2019-02-06T01:26:11.861Z,31.64
2019-02-06T01:27:11.849Z,31.94
2019-02-06T01:28:11.836Z,31.64
2019-02-06T01:29:11.852Z,31.62
2019-02-06T01:30:11.822Z,31.94
2019-02-06T01:31:11.803Z,31.62
2019-02-06T01:32:11.913Z,31.74
2019-02-06T01:33:11.795Z,31.82
2019-02-06T01:34:11.776Z,31.54
2019-02-06T01:35:11.784Z,31.64
2019-02-06T01:36:11.801Z,31.24
2019-02-06T01:39:28.467Z,31.54
2019-02-06T01:40:27.460Z,31.85
2019-02-06T01:41:27.442Z,31.34
2019-02-06T01:42:27.429Z,31.76
2019-02-06T01:43:27.421Z,31.56
2019-02-06T01:44:27.408Z,31.94
2019-02-06T01:45:27.409Z,31.76
2019-02-06T01:46:27.388Z,31.74
2019-02-06T01:47:27.374Z,31.76
2019-02-06T01:48:27.362Z,31.54
2019-02-06T01:49:27.352Z,31.74
2019-02-06T01:50:27.361Z,31.76
2019-02-06T01:51:27.334Z,31.74
2019-02-06T01:52:27.322Z,31.56
2019-02-06T01:53:27.310Z,32.34
2019-02-06T01:54:27.308Z,31.76
2019-02-06T01:55:27.322Z,31.64
2019-02-06T01:56:27.282Z,31.85
2019-02-06T01:57:27.272Z,31.64
2019-02-06T01:58:27.262Z,31.96
2019-02-06T01:59:27.252Z,31.76
2019-02-06T02:00:27.246Z,31.64
2019-02-06T02:01:27.243Z,31.65
2019-02-06T02:02:27.217Z,31.76
2019-02-06T02:03:27.204Z,32.15
2019-02-06T02:04:27.196Z,31.35
2019-02-06T02:05:27.191Z,31.76
2019-02-06T02:06:27.193Z,32.56
2019-02-06T02:07:27.164Z,32.46
2019-02-06T02:08:27.156Z,31.76
2019-02-06T02:09:27.141Z,32.56
2019-02-06T02:10:27.131Z,32.35
2019-02-06T02:11:27.136Z,31.85
2019-02-06T02:12:27.114Z,32.26
2019-02-06T02:13:27.103Z,31.85
2019-02-06T02:14:27.091Z,32.56
2019-02-06T02:15:27.083Z,32.56
2019-02-06T02:16:27.089Z,32.26
2019-02-06T02:17:27.055Z,31.96
2019-02-06T02:18:27.053Z,32.46
2019-02-06T02:19:27.036Z,31.85
2019-02-06T02:20:27.033Z,31.76
2019-02-06T02:21:27.047Z,31.85
2019-02-06T02:22:27.007Z,32.15
2019-02-06T02:23:26.993Z,32.56
2019-02-06T02:24:26.987Z,31.96
2019-02-06T02:25:26.970Z,32.46
2019-02-06T02:26:26.981Z,32.46
2019-02-06T02:27:26.960Z,32.65
2019-02-06T02:28:26.944Z,32.65
2019-02-06T02:29:26.938Z,32.46
2019-02-06T02:30:26.929Z,32.46
2019-02-06T02:31:26.942Z,31.77
2019-02-06T02:32:26.903Z,32.47
2019-02-06T02:33:26.890Z,31.87
2019-02-06T02:34:26.878Z,32.57
2019-02-06T02:35:26.871Z,32.57
2019-02-06T02:36:26.883Z,32.59
2019-02-06T02:37:26.856Z,32.49
2019-02-06T02:38:26.873Z,32.47
2019-02-06T02:39:26.828Z,32.18
2019-02-06T02:40:26.816Z,31.99
2019-02-06T02:41:26.824Z,31.99
2019-02-06T02:42:26.800Z,32.09
2019-02-06T02:43:26.788Z,33.39
2019-02-06T02:44:26.779Z,32.89
2019-02-06T02:45:26.767Z,32.89
2019-02-06T02:46:26.785Z,32.90
2019-02-06T02:47:26.745Z,32.81
2019-02-06T02:48:26.762Z,32.90
2019-02-06T02:49:26.722Z,33.00
2019-02-06T02:50:26.715Z,32.70
2019-02-06T02:51:26.706Z,33.40
2019-02-06T02:52:26.708Z,33.52
2019-02-06T02:53:26.683Z,33.20
2019-02-06T02:54:26.668Z,33.32
2019-02-06T02:55:26.662Z,33.72
2019-02-06T02:56:26.651Z,33.71
2019-02-06T02:57:26.653Z,33.20
2019-02-06T02:58:26.629Z,33.39
2019-02-06T02:59:26.626Z,32.99
2019-02-06T03:00:26.608Z,33.17
2019-02-06T03:01:26.598Z,33.07
2019-02-06T03:02:26.601Z,31.96
2019-02-06T03:03:26.572Z,32.76
2019-02-06T03:04:26.564Z,32.26
2019-02-06T03:05:26.553Z,31.44
2019-02-06T03:06:28.512Z,31.34
2019-02-06T03:07:26.551Z,31.84
2019-02-06T03:08:26.524Z,31.64
2019-02-06T03:09:26.515Z,31.34
2019-02-06T03:10:26.507Z,31.52
2019-02-06T03:11:26.651Z,31.62
2019-02-06T03:12:26.503Z,31.93
2019-02-06T03:13:26.473Z,31.82
2019-02-06T03:14:26.462Z,32.23
2019-02-06T03:15:26.459Z,31.11
2019-02-06T03:16:26.443Z,31.51
2019-02-06T03:17:26.441Z,30.31
2019-02-06T03:18:26.422Z,29.90
2019-02-06T03:19:26.412Z,30.49
2019-02-06T03:20:26.416Z,30.10
2019-02-06T03:21:26.390Z,30.71
2019-02-06T03:22:26.397Z,30.31
2019-02-06T03:23:26.375Z,30.01
2019-02-06T03:24:26.357Z,30.31
2019-02-06T03:25:26.348Z,30.41
2019-02-06T03:26:26.338Z,31.11
2019-02-06T03:27:26.358Z,30.21
2019-02-06T03:28:26.322Z,30.11
2019-02-06T03:29:26.304Z,30.31
2019-02-06T03:30:26.299Z,30.11
2019-02-06T03:31:26.284Z,31.21
2019-02-06T03:32:26.328Z,30.21
2019-02-06T03:33:26.279Z,30.01
2019-02-06T03:34:26.255Z,30.11
2019-02-06T03:35:26.243Z,31.31
2019-02-06T03:36:26.230Z,31.11
2019-02-06T03:37:26.223Z,30.41
2019-02-06T03:38:26.260Z,30.01
2019-02-06T03:39:26.202Z,30.41
2019-02-06T03:40:26.193Z,30.11
2019-02-06T03:41:26.175Z,30.71
2019-02-06T03:42:26.189Z,31.32
2019-02-06T03:43:26.176Z,31.12
2019-02-06T03:44:26.149Z,31.23
2019-02-06T03:45:26.146Z,30.93
2019-02-06T03:46:26.129Z,31.43
2019-02-06T03:47:26.112Z,31.52
2019-02-06T03:48:26.124Z,31.12
2019-02-06T03:49:26.098Z,31.12
2019-02-06T03:50:26.084Z,31.52
2019-02-06T03:51:26.075Z,31.52
2019-02-06T03:52:26.061Z,31.62
2019-02-06T03:53:26.071Z,31.32
2019-02-06T03:54:26.044Z,31.73
2019-02-06T03:55:26.032Z,31.32
2019-02-06T03:56:26.021Z,31.82
2019-02-06T03:57:26.020Z,31.43
2019-02-06T03:58:26.016Z,31.32
2019-02-06T03:59:25.999Z,31.82
2019-02-06T04:00:25.980Z,31.62
2019-02-06T04:01:25.969Z,31.23
2019-02-06T04:02:25.987Z,31.52
2019-02-06T04:03:25.964Z,31.52
2019-02-06T04:04:25.952Z,31.74
2019-02-06T04:05:25.927Z,31.82
2019-02-06T04:06:25.914Z,31.54
2019-02-06T04:07:25.904Z,31.84
2019-02-06T04:08:25.925Z,31.24
2019-02-06T04:09:25.883Z,31.54
2019-02-06T04:10:25.872Z,31.54
2019-02-06T04:11:25.881Z,31.44
2019-02-06T04:12:25.852Z,31.84
2019-02-06T04:13:25.853Z,31.64
2019-02-06T04:14:25.844Z,31.64
2019-02-06T04:15:25.824Z,31.64
2019-02-06T04:16:25.885Z,31.84
2019-02-06T04:17:25.801Z,31.64
2019-02-06T04:18:25.791Z,31.54
2019-02-06T04:19:25.820Z,31.65
2019-02-06T04:20:25.769Z,31.35
2019-02-06T04:21:25.760Z,31.96
2019-02-06T04:22:25.748Z,31.96
2019-02-06T04:23:25.739Z,31.85
2019-02-06T04:24:25.744Z,32.15
2019-02-06T04:25:25.725Z,31.97
2019-02-06T04:26:25.705Z,31.97
2019-02-06T04:27:25.699Z,32.27
2019-02-06T04:28:25.686Z,32.37
2019-02-06T04:29:25.691Z,32.47
2019-02-06T04:30:25.667Z,32.27
2019-02-06T04:31:25.661Z,32.67
2019-02-06T04:32:25.677Z,32.87
2019-02-06T04:33:25.635Z,32.27
2019-02-06T04:34:25.651Z,32.27
2019-02-06T04:35:25.611Z,32.47
2019-02-06T04:36:25.606Z,32.47
2019-02-06T04:37:25.591Z,32.37
2019-02-06T04:38:25.578Z,32.47
2019-02-06T04:39:25.601Z,32.37
2019-02-06T04:40:25.556Z,32.57
2019-02-06T04:41:25.556Z,31.87
2019-02-06T04:42:25.542Z,32.77
2019-02-06T04:43:25.531Z,31.76
2019-02-06T04:44:25.564Z,32.65
2019-02-06T04:45:25.512Z,31.76
2019-02-06T04:46:25.495Z,31.47
2019-02-06T04:47:25.497Z,31.87
2019-02-06T04:48:25.480Z,31.77
2019-02-06T04:49:25.483Z,32.67
2019-02-06T04:50:25.458Z,32.07
2019-02-06T04:51:25.443Z,32.67
2019-02-06T04:52:25.433Z,31.97
2019-02-06T04:53:25.459Z,32.47
2019-02-06T04:54:25.449Z,32.29
2019-02-06T04:55:25.401Z,32.39
2019-02-06T04:56:25.391Z,33.19
2019-02-06T04:57:25.383Z,33.09
2019-02-06T04:58:25.372Z,33.09
2019-02-06T04:59:25.364Z,32.79
2019-02-06T05:00:25.391Z,32.89
2019-02-06T05:01:25.338Z,32.79
2019-02-06T05:02:25.330Z,33.49
2019-02-06T05:03:25.931Z,33.31
2019-02-06T05:04:25.322Z,33.91
2019-02-06T05:05:25.321Z,33.31
2019-02-06T05:06:25.293Z,34.61
2019-02-06T05:07:25.303Z,34.51
2019-02-06T05:08:25.270Z,34.61
2019-02-06T05:09:25.259Z,33.81
2019-02-06T05:10:25.270Z,33.81
2019-02-06T05:11:25.234Z,33.91
2019-02-06T05:12:25.227Z,34.21
2019-02-06T05:13:25.222Z,33.71
2019-02-06T05:14:25.205Z,33.49
2019-02-06T05:15:25.221Z,33.11
2019-02-06T05:16:25.186Z,33.81
2019-02-06T05:17:25.170Z,33.81
2019-02-06T05:18:25.166Z,34.09
2019-02-06T05:19:25.164Z,33.71
2019-02-06T05:20:25.156Z,34.09
2019-02-06T05:21:25.132Z,33.59
2019-02-06T05:22:25.122Z,33.59
2019-02-06T05:23:25.118Z,33.29
2019-02-06T05:24:25.103Z,33.19
2019-02-06T05:25:25.119Z,33.17
2019-02-06T05:26:25.075Z,32.97
2019-02-06T05:27:25.068Z,33.07
2019-02-06T05:28:25.070Z,33.47
2019-02-06T05:29:25.045Z,33.28
2019-02-06T05:30:25.057Z,32.77
2019-02-06T05:31:25.029Z,32.86
2019-02-06T05:32:25.026Z,33.16
2019-02-06T05:33:25.005Z,32.86
2019-02-06T05:34:25.001Z,32.26
2019-02-06T05:35:25.007Z,32.35
2019-02-06T05:36:24.987Z,32.44
2019-02-06T05:37:32.241Z,32.74
2019-02-06T05:38:25.967Z,32.74
2019-02-06T05:39:24.947Z,32.44
2019-02-06T05:40:24.948Z,32.44
2019-02-06T05:41:24.943Z,32.54
2019-02-06T05:42:24.915Z,32.34
2019-02-06T05:43:24.899Z,32.94
2019-02-06T05:44:24.890Z,32.44
2019-02-06T05:45:24.880Z,32.74
2019-02-06T05:46:24.886Z,32.04
2019-02-06T05:47:24.882Z,32.46
2019-02-06T05:48:24.851Z,32.56
2019-02-06T05:49:24.843Z,32.46
2019-02-06T05:50:24.825Z,32.65
2019-02-06T05:51:24.842Z,32.26
2019-02-06T05:52:24.814Z,32.35
2019-02-06T05:53:24.800Z,32.35
2019-02-06T05:54:24.795Z,32.07
2019-02-06T05:55:24.774Z,32.47
2019-02-06T05:56:24.785Z,33.37
2019-02-06T05:57:24.759Z,31.65
2019-02-06T05:58:24.755Z,30.26
2019-02-06T05:59:24.777Z,29.15
2019-02-06T06:00:24.725Z,29.24
2019-02-06T06:01:24.738Z,30.35
2019-02-06T06:02:24.701Z,30.35
2019-02-06T06:03:24.701Z,30.47
2019-02-06T06:04:24.679Z,30.47
2019-02-06T06:05:24.675Z,30.77
2019-02-06T06:06:24.707Z,30.48
2019-02-06T06:07:24.657Z,30.28
2019-02-06T06:08:24.642Z,31.68
2019-02-06T06:09:24.660Z,31.29
2019-02-06T06:10:24.645Z,31.48
2019-02-06T06:11:24.649Z,31.40
2019-02-06T06:12:24.622Z,30.90
2019-02-06T06:13:24.587Z,31.20
2019-02-06T06:14:24.585Z,30.80
2019-02-06T06:15:24.590Z,31.70
2019-02-06T06:16:24.594Z,31.70
2019-02-06T06:17:24.549Z,31.90
2019-02-06T06:18:24.537Z,31.80
2019-02-06T06:19:24.529Z,31.80
2019-02-06T06:20:24.516Z,31.80
2019-02-06T06:21:24.507Z,31.62
2019-02-06T06:22:24.508Z,31.71
2019-02-06T06:23:24.499Z,31.71
2019-02-06T06:24:24.506Z,31.90
2019-02-06T06:25:24.471Z,31.40
2019-02-06T06:26:24.456Z,32.00
2019-02-06T06:27:24.452Z,31.71
2019-02-06T06:28:24.430Z,31.71
2019-02-06T06:29:24.426Z,31.51
2019-02-06T06:30:24.418Z,31.80
2019-02-06T06:31:24.403Z,31.60
2019-02-06T06:32:24.404Z,31.62
2019-02-06T06:33:24.408Z,31.92
2019-02-06T06:34:24.365Z,32.12
2019-02-06T06:35:24.372Z,32.02
2019-02-06T06:36:24.353Z,32.52
2019-02-06T06:37:24.387Z,32.33
2019-02-06T06:38:24.329Z,32.21
2019-02-06T06:39:24.327Z,32.03
2019-02-06T06:40:24.310Z,32.03
2019-02-06T06:41:24.293Z,32.84
2019-02-06T06:42:24.412Z,33.05
2019-02-06T06:43:24.275Z,33.04
2019-02-06T06:44:24.266Z,33.15
2019-02-06T06:45:24.258Z,33.05
2019-02-06T06:46:24.245Z,32.95
2019-02-06T06:47:24.255Z,32.55
2019-02-06T06:48:24.240Z,33.75
2019-02-06T06:49:24.220Z,33.55
2019-02-06T06:50:24.205Z,33.57
2019-02-06T06:51:24.198Z,33.36
2019-02-06T06:52:24.205Z,33.97
2019-02-06T06:53:24.169Z,33.97
2019-02-06T06:54:24.163Z,33.57
2019-02-06T06:55:24.145Z,34.17
2019-02-06T06:56:24.136Z,34.07
2019-02-06T06:57:24.143Z,34.27
2019-02-06T06:58:24.134Z,33.87
2019-02-06T06:59:24.118Z,33.87
2019-02-06T07:00:24.098Z,33.87
2019-02-06T07:01:24.088Z,33.97
2019-02-06T07:02:24.114Z,33.87
2019-02-06T07:03:24.067Z,33.87
2019-02-06T07:04:24.060Z,33.97
2019-02-06T07:05:24.060Z,34.27
2019-02-06T07:06:24.042Z,33.47
2019-02-06T07:07:24.053Z,33.87
2019-02-06T07:08:24.013Z,34.38
2019-02-06T07:09:24.006Z,33.87
2019-02-06T07:10:23.992Z,34.88
2019-02-06T07:11:23.989Z,34.27
2019-02-06T07:12:23.987Z,34.17
2019-02-06T07:13:23.966Z,33.65
2019-02-06T07:14:23.946Z,33.36
2019-02-06T07:15:23.948Z,33.95
2019-02-06T07:16:23.931Z,34.16
2019-02-06T07:17:23.951Z,33.94
2019-02-06T07:18:23.908Z,33.74
2019-02-06T07:19:23.899Z,33.34
2019-02-06T07:20:23.901Z,33.64
2019-02-06T07:21:23.874Z,33.34
2019-02-06T07:22:23.876Z,33.54
2019-02-06T07:23:23.880Z,33.22
2019-02-06T07:24:23.852Z,33.02
2019-02-06T07:25:23.835Z,33.02
2019-02-06T07:26:23.829Z,33.11
2019-02-06T07:27:23.819Z,32.81
2019-02-06T07:28:23.819Z,33.00
2019-02-06T07:29:23.797Z,32.10
2019-02-06T07:30:23.782Z,32.30
2019-02-06T07:31:23.776Z,32.39
2019-02-06T07:32:23.767Z,32.18
2019-02-06T07:33:23.772Z,32.49
2019-02-06T07:34:23.745Z,32.30
2019-02-06T07:35:23.731Z,32.70
2019-02-06T07:36:23.722Z,32.49
2019-02-06T07:37:23.714Z,32.50
2019-02-06T07:38:24.606Z,32.10
2019-02-06T07:39:23.688Z,32.10
2019-02-06T07:40:23.677Z,33.11
2019-02-06T07:41:23.670Z,32.90
2019-02-06T07:42:23.658Z,32.50
2019-02-06T07:43:23.662Z,33.11
2019-02-06T07:44:23.649Z,32.90
2019-02-06T07:45:23.631Z,33.00
2019-02-06T07:46:23.610Z,33.00
2019-02-06T07:47:23.606Z,33.11
2019-02-06T07:48:23.627Z,32.90
2019-02-06T07:49:23.585Z,32.92
2019-02-06T07:50:23.575Z,32.90
2019-02-06T07:51:23.559Z,32.81
2019-02-06T07:52:23.555Z,32.90
2019-02-06T07:53:23.644Z,32.90
2019-02-06T07:54:23.533Z,32.81
2019-02-06T07:55:23.619Z,33.12
2019-02-06T07:56:23.509Z,33.42
2019-02-06T07:57:23.501Z,33.61
2019-02-06T07:58:23.487Z,33.02
2019-02-06T07:59:23.495Z,33.12
2019-02-06T08:00:23.463Z,33.11
2019-02-06T08:01:23.462Z,33.22
2019-02-06T08:02:23.448Z,32.82
2019-02-06T08:03:23.441Z,33.12
2019-02-06T08:04:23.438Z,32.82
2019-02-06T08:05:23.415Z,33.52
2019-02-06T08:06:23.405Z,33.52
2019-02-06T08:07:23.393Z,33.72
2019-02-06T08:08:35.282Z,32.92
2019-02-06T08:09:24.437Z,33.02
2019-02-06T08:10:23.361Z,33.32
2019-02-06T08:11:23.349Z,33.32
2019-02-06T08:12:23.348Z,33.42
2019-02-06T08:13:23.328Z,33.42
2019-02-06T08:14:23.352Z,33.42
2019-02-06T08:15:23.309Z,33.32
2019-02-06T08:16:23.302Z,33.32
2019-02-06T08:17:23.327Z,33.12
2019-02-06T08:18:23.277Z,33.02
2019-02-06T08:19:23.290Z,33.22
2019-02-06T08:20:23.257Z,33.32
2019-02-06T08:21:23.251Z,33.22
2019-02-06T08:22:23.238Z,32.92
2019-02-06T08:23:23.230Z,33.52
2019-02-06T08:24:23.233Z,33.32
2019-02-06T08:25:23.209Z,33.02
2019-02-06T08:26:23.291Z,33.52
2019-02-06T08:27:26.228Z,32.82
2019-02-06T08:28:23.187Z,32.92
2019-02-06T08:29:23.187Z,33.52
2019-02-06T08:30:23.152Z,33.72
2019-02-06T08:31:23.138Z,33.42
2019-02-06T08:32:23.172Z,33.52
2019-02-06T08:33:23.120Z,32.81
2019-02-06T08:34:23.109Z,33.71
2019-02-06T08:35:23.117Z,33.31
2019-02-06T08:36:23.104Z,33.00
2019-02-06T08:37:23.078Z,32.90
2019-02-06T08:38:23.070Z,32.81
2019-02-06T08:39:23.058Z,33.00
2019-02-06T08:40:23.077Z,33.11
2019-02-06T08:41:23.039Z,32.50
2019-02-06T08:42:23.027Z,33.02
2019-02-06T08:43:23.020Z,32.92
2019-02-06T08:44:23.005Z,32.62
2019-02-06T08:45:23.016Z,32.82
2019-02-06T08:46:22.982Z,33.02
2019-02-06T08:47:22.975Z,33.02
2019-02-06T08:48:22.962Z,33.12
2019-02-06T08:49:22.947Z,33.32
2019-02-06T08:50:22.963Z,33.22
2019-02-06T08:51:22.933Z,33.62
2019-02-06T08:52:22.919Z,33.34
2019-02-06T08:53:22.916Z,33.64
2019-02-06T08:54:22.898Z,33.54
2019-02-06T08:55:22.906Z,33.74
2019-02-06T08:56:22.887Z,34.14
2019-02-06T08:57:22.865Z,33.84
2019-02-06T08:58:22.861Z,34.04
2019-02-06T08:59:22.917Z,33.84
2019-02-06T09:00:22.854Z,33.55
2019-02-06T09:01:22.826Z,34.06
2019-02-06T09:02:22.816Z,34.44
2019-02-06T09:03:22.812Z,33.34
2019-02-06T09:04:22.797Z,34.04
2019-02-06T09:05:22.799Z,34.24
2019-02-06T09:06:22.770Z,34.64
2019-02-06T09:07:22.765Z,34.24
2019-02-06T09:08:22.753Z,33.64
2019-02-06T09:09:22.749Z,33.75
2019-02-06T09:10:22.763Z,33.54
2019-02-06T09:11:22.720Z,33.34
2019-02-06T09:12:22.719Z,33.54
2019-02-06T09:13:22.700Z,33.84
2019-02-06T09:14:22.695Z,34.24
2019-02-06T09:15:22.698Z,33.34
2019-02-06T09:16:22.682Z,33.72
2019-02-06T09:17:22.675Z,33.52
2019-02-06T09:18:22.647Z,33.72
2019-02-06T09:19:22.641Z,33.32
2019-02-06T09:20:22.631Z,33.42
2019-02-06T09:21:22.633Z,33.52
2019-02-06T09:22:22.610Z,33.83
2019-02-06T09:23:22.693Z,33.22
2019-02-06T09:24:22.689Z,34.02
2019-02-06T09:25:22.572Z,33.61
2019-02-06T09:26:22.631Z,33.22
2019-02-06T09:27:22.557Z,33.71
2019-02-06T09:28:22.541Z,33.51
2019-02-06T09:29:22.536Z,33.31
2019-02-06T09:30:22.526Z,33.61
2019-02-06T09:31:22.541Z,33.61
2019-02-06T09:32:22.505Z,32.81
2019-02-06T09:33:22.488Z,32.90
2019-02-06T09:34:22.482Z,32.81
2019-02-06T09:35:22.474Z,32.90
2019-02-06T09:36:22.485Z,32.81
2019-02-06T09:37:22.448Z,32.81
2019-02-06T09:38:22.436Z,33.51
2019-02-06T09:39:22.429Z,32.81
2019-02-06T09:40:22.497Z,33.00
2019-02-06T09:41:22.428Z,33.20
2019-02-06T09:42:22.397Z,33.71
2019-02-06T09:43:22.392Z,32.81
2019-02-06T09:44:22.376Z,32.79
2019-02-06T09:45:22.365Z,32.90
2019-02-06T09:46:22.385Z,32.69
2019-02-06T09:47:22.342Z,33.09
2019-02-06T09:48:22.352Z,33.09
2019-02-06T09:49:22.329Z,33.19
2019-02-06T09:50:22.328Z,33.19
2019-02-06T09:51:22.308Z,32.79
2019-02-06T09:52:25.636Z,32.89
2019-02-06T09:53:23.283Z,32.89
2019-02-06T09:54:22.271Z,33.17
2019-02-06T09:55:22.264Z,32.09
2019-02-06T09:56:22.255Z,33.28
2019-02-06T09:57:22.261Z,31.97
2019-02-06T09:58:22.228Z,32.07
2019-02-06T09:59:22.221Z,33.07
2019-02-06T10:00:22.208Z,32.47
2019-02-06T10:01:22.254Z,32.47
2019-02-06T10:02:22.204Z,31.97
2019-02-06T10:03:22.179Z,32.67
2019-02-06T10:04:22.169Z,32.17
2019-02-06T10:05:22.157Z,32.27
2019-02-06T10:06:22.153Z,32.37
2019-02-06T10:07:22.155Z,32.27
2019-02-06T10:08:22.128Z,32.07
2019-02-06T10:09:23.170Z,32.47
2019-02-06T10:10:22.109Z,32.47
2019-02-06T10:11:22.151Z,32.17
2019-02-06T10:12:22.102Z,31.87
2019-02-06T10:13:22.086Z,31.97
2019-02-06T10:14:22.073Z,33.09
2019-02-06T10:15:22.052Z,32.67
2019-02-06T10:16:22.042Z,32.07
2019-02-06T10:17:22.049Z,32.27
2019-02-06T10:18:22.023Z,32.07
2019-02-06T10:19:22.012Z,32.27
2019-02-06T10:20:22.001Z,32.57
2019-02-06T10:21:21.989Z,32.37
2019-02-06T10:22:22.002Z,32.07
2019-02-06T10:23:21.971Z,32.17
2019-02-06T10:24:21.956Z,32.17
2019-02-06T10:25:21.950Z,32.07
2019-02-06T10:26:21.938Z,32.27
2019-02-06T10:27:24.005Z,32.47
2019-02-06T10:28:24.149Z,32.27
2019-02-06T10:29:21.914Z,32.27
2019-02-06T10:30:21.908Z,32.27
2019-02-06T10:31:21.904Z,32.17
2019-02-06T10:32:21.887Z,32.57
2019-02-06T10:33:21.868Z,31.96
2019-02-06T10:34:21.849Z,32.65
2019-02-06T10:35:21.842Z,32.56
2019-02-06T10:36:21.845Z,32.47
2019-02-06T10:37:21.845Z,32.57
2019-02-06T10:38:21.811Z,32.35
2019-02-06T10:39:21.799Z,32.65
2019-02-06T10:40:21.786Z,32.46
2019-02-06T10:41:21.780Z,32.56
2019-02-06T10:42:21.771Z,32.56
2019-02-06T10:43:31.507Z,31.84
2019-02-06T10:44:22.748Z,31.44
2019-02-06T10:45:21.739Z,32.14
2019-02-06T10:46:21.729Z,31.32
2019-02-06T10:47:21.720Z,31.73
2019-02-06T10:48:21.720Z,31.54
2019-02-06T10:49:21.702Z,31.73
2019-02-06T10:50:21.690Z,31.74
2019-02-06T10:51:21.673Z,31.64
2019-02-06T10:52:21.751Z,31.54
2019-02-06T10:53:21.664Z,31.74
2019-02-06T10:54:21.647Z,31.24
2019-02-06T10:55:21.640Z,31.43
2019-02-06T10:56:21.626Z,31.84
2019-02-06T10:57:21.619Z,31.74
2019-02-06T10:58:21.620Z,31.64
2019-02-06T10:59:21.600Z,31.62
2019-02-06T11:00:21.581Z,31.52
2019-02-06T11:01:21.573Z,31.52
2019-02-06T11:02:21.562Z,31.12
2019-02-06T11:03:21.567Z,31.73
2019-02-06T11:04:21.541Z,31.62
2019-02-06T11:05:21.534Z,31.82
2019-02-06T11:06:21.526Z,31.82
2019-02-06T11:07:21.532Z,31.93
2019-02-06T11:08:21.516Z,31.73
2019-02-06T11:09:21.497Z,31.43
2019-02-06T11:10:21.472Z,31.43
2019-02-06T11:11:21.481Z,31.52
2019-02-06T11:12:24.526Z,31.64
2019-02-06T11:13:21.472Z,31.73
2019-02-06T11:14:21.437Z,31.74
2019-02-06T11:15:21.431Z,31.64
2019-02-06T11:16:21.484Z,31.24
2019-02-06T11:17:21.407Z,32.24
2019-02-06T11:18:21.414Z,31.76
2019-02-06T11:19:21.385Z,32.06
2019-02-06T11:20:21.378Z,32.06
2019-02-06T11:21:21.362Z,32.15
2019-02-06T11:22:21.356Z,32.46
2019-02-06T11:23:21.363Z,31.87
2019-02-06T11:24:21.330Z,32.77
2019-02-06T11:25:21.321Z,32.27
2019-02-06T11:26:21.308Z,32.17
2019-02-06T11:27:21.304Z,32.37
2019-02-06T11:28:21.307Z,32.27
2019-02-06T11:29:21.280Z,32.17
2019-02-06T11:30:21.273Z,33.07
2019-02-06T11:31:21.262Z,32.27
2019-02-06T11:32:21.249Z,32.27
2019-02-06T11:33:21.260Z,33.07
2019-02-06T11:34:21.226Z,33.17
2019-02-06T11:35:21.221Z,32.07
2019-02-06T11:36:24.297Z,32.17
2019-02-06T11:37:21.210Z,32.47
2019-02-06T11:38:21.204Z,33.28
2019-02-06T11:39:21.176Z,32.47
2019-02-06T11:40:21.161Z,32.37
2019-02-06T11:41:21.158Z,32.26
2019-02-06T11:42:21.142Z,32.06
2019-02-06T11:43:21.147Z,32.26
2019-02-06T11:44:21.121Z,32.35
2019-02-06T11:45:21.114Z,32.65
2019-02-06T11:46:21.105Z,32.46
2019-02-06T11:47:21.093Z,32.46
2019-02-06T11:48:21.096Z,32.34
2019-02-06T11:49:21.067Z,32.26
2019-02-06T11:50:21.076Z,31.94
2019-02-06T11:51:21.050Z,31.64
2019-02-06T11:52:21.040Z,31.64
2019-02-06T11:53:21.056Z,31.74
2019-02-06T11:54:21.022Z,31.24
2019-02-06T11:55:21.006Z,31.84
2019-02-06T11:56:20.996Z,31.64
2019-02-06T11:57:24.015Z,31.32
2019-02-06T11:58:20.973Z,31.74
2019-02-06T11:59:20.978Z,31.93
2019-02-06T12:00:20.950Z,31.54
2019-02-06T12:01:20.946Z,31.52
2019-02-06T12:02:20.930Z,31.62
2019-02-06T12:03:22.319Z,31.73
2019-02-06T12:04:20.925Z,31.43
2019-02-06T12:05:20.901Z,30.82
2019-02-06T12:06:20.890Z,31.82
2019-02-06T12:07:20.888Z,31.62
2019-02-06T12:08:20.884Z,31.82
2019-02-06T12:09:20.870Z,31.73
2019-02-06T12:10:20.849Z,31.52
2019-02-06T12:11:20.834Z,31.73
2019-02-06T12:12:20.826Z,31.73
2019-02-06T12:13:20.818Z,31.52
2019-02-06T12:14:20.826Z,31.62
2019-02-06T12:15:20.807Z,31.82
2019-02-06T12:16:20.939Z,31.43
2019-02-06T12:17:20.776Z,31.11
2019-02-06T12:18:20.760Z,31.31
2019-02-06T12:19:20.779Z,31.31
2019-02-06T12:20:20.746Z,31.11
2019-02-06T12:21:20.736Z,31.41
2019-02-06T12:22:20.719Z,31.31
2019-02-06T12:23:31.644Z,31.32
2019-02-06T12:24:21.724Z,31.21
2019-02-06T12:25:20.697Z,30.91
2019-02-06T12:26:20.682Z,31.01
2019-02-06T12:27:20.677Z,31.21
2019-02-06T12:28:20.666Z,31.41
2019-02-06T12:29:20.644Z,31.41
2019-02-06T12:30:20.669Z,31.41
2019-02-06T12:31:20.641Z,31.59
2019-02-06T12:32:20.620Z,30.61
2019-02-06T12:33:20.608Z,31.49
2019-02-06T12:34:20.602Z,29.91
2019-02-06T12:35:20.624Z,30.21
2019-02-06T12:36:20.582Z,30.49
2019-02-06T12:37:20.565Z,30.10
2019-02-06T12:38:20.555Z,30.21
2019-02-06T12:39:22.717Z,30.60
2019-02-06T12:40:21.952Z,30.51
2019-02-06T12:41:20.551Z,30.31
2019-02-06T12:42:20.515Z,31.11
2019-02-06T12:43:20.504Z,31.11
2019-02-06T12:44:20.494Z,31.31
2019-02-06T12:45:20.486Z,31.11
2019-02-06T12:46:20.489Z,31.11
2019-02-06T12:47:20.472Z,31.01
2019-02-06T12:48:20.580Z,31.41
2019-02-06T12:49:20.439Z,31.11
2019-02-06T12:50:20.441Z,31.41
2019-02-06T12:51:20.438Z,31.31
2019-02-06T12:52:20.427Z,31.51
2019-02-06T12:53:20.402Z,31.51
2019-02-06T12:54:20.393Z,31.41